Time;durP1;ratioP1;P1;durP2;ratioP2;P2;SDS_P1;SDS_P2;PMS_P1;PMS_P2;Temp;Humidity;BMP_temperature;BMP_pressure;BME280_temperature;BME280_humidity;BME280_pressure;Samples;Min_cycle;Max_cycle;Signal;HPM_P1;HPM_P2
2023/06/06 00:00:50;;;;;;;8.95;7.38;;;;;;;;;;5078857;28;20028;-76
2023/06/06 00:03:20;;;;;;;7.70;6.97;;;;;;;;;;5074567;28;20154;-77
2023/06/06 00:05:48;;;;;;;10.32;7.35;;;;;;;;;;5082317;28;20047;-76
2023/06/06 00:08:13;;;;;;;11.93;7.50;;;;;;;;;;5080910;28;20558;-79
2023/06/06 00:10:39;;;;;;;10.10;7.25;;;;;;;;;;5082879;28;20223;-78
2023/06/06 00:13:04;;;;;;;14.25;7.60;;;;;;;;;;5082132;28;20016;-77
2023/06/06 00:15:30;;;;;;;8.75;7.15;;;;;;;;;;5080792;28;20020;-78
2023/06/06 00:17:56;;;;;;;8.95;7.20;;;;;;;;;;5082483;28;20096;-77
2023/06/06 00:20:22;;;;;;;13.48;6.68;;;;;;;;;;5071661;28;20831;-78
2023/06/06 00:22:48;;;;;;;7.80;6.82;;;;;;;;;;5067770;28;20039;-81
2023/06/06 00:25:14;;;;;;;8.60;6.32;;;;;;;;;;5077420;28;20034;-77
2023/06/06 00:27:39;;;;;;;7.50;6.80;;;;;;;;;;5071214;28;20032;-78
2023/06/06 00:30:05;;;;;;;9.25;6.65;;;;;;;;;;5081311;28;20446;-78
2023/06/06 00:32:31;;;;;;;9.02;6.85;;;;;;;;;;5081886;28;20036;-80
2023/06/06 00:34:56;;;;;;;8.90;7.13;;;;;;;;;;5079506;28;20451;-77
2023/06/06 00:37:22;;;;;;;9.05;6.43;;;;;;;;;;5073447;28;20028;-79
2023/06/06 00:39:47;;;;;;;7.45;6.65;;;;;;;;;;5083016;28;20030;-79
2023/06/06 00:42:13;;;;;;;9.80;6.97;;;;;;;;;;5081896;28;20032;-79
2023/06/06 00:44:38;;;;;;;9.43;6.90;;;;;;;;;;5083115;28;20473;-78
2023/06/06 00:47:04;;;;;;;8.02;6.95;;;;;;;;;;5082043;28;20030;-78
2023/06/06 00:49:30;;;;;;;17.60;6.88;;;;;;;;;;5070144;28;20363;-81
2023/06/06 00:51:56;;;;;;;7.72;6.60;;;;;;;;;;5081128;28;20020;-80
2023/06/06 00:54:21;;;;;;;10.23;6.80;;;;;;;;;;5081634;28;20120;-79
2023/06/06 00:56:47;;;;;;;9.13;6.90;;;;;;;;;;5081941;28;20143;-76
2023/06/06 00:59:13;;;;;;;6.72;6.13;;;;;;;;;;5078681;28;20037;-77
2023/06/06 01:01:39;;;;;;;11.57;6.25;;;;;;;;;;5082408;28;20044;-77
2023/06/06 01:04:08;;;;;;;6.72;6.07;;;;;;;;;;5080289;28;20120;-78
2023/06/06 01:06:35;;;;;;;9.23;7.70;;;;;;;;;;5081605;28;20020;-77
2023/06/06 01:09:04;;;;;;;7.72;6.35;;;;;;;;;;5078541;28;20035;-80
2023/06/06 01:11:35;;;;;;;10.93;7.15;;;;;;;;;;5072278;28;20453;-76
2023/06/06 01:14:13;;;;;;;12.35;7.43;;;;;;;;;;5081890;28;20024;-76
2023/06/06 01:16:40;;;;;;;9.57;6.38;;;;;;;;;;5082141;28;20031;-77
2023/06/06 01:19:09;;;;;;;9.27;6.65;;;;;;;;;;5081534;28;20111;-79
2023/06/06 01:21:40;;;;;;;12.40;6.60;;;;;;;;;;5080636;28;20032;-81
2023/06/06 01:24:06;;;;;;;11.50;6.32;;;;;;;;;;5075703;28;20035;-77
2023/06/06 01:26:31;;;;;;;9.77;6.53;;;;;;;;;;5078153;28;20024;-78
2023/06/06 01:28:56;;;;;;;9.10;7.38;;;;;;;;;;5074634;28;20081;-78
2023/06/06 01:31:22;;;;;;;10.75;7.38;;;;;;;;;;5079150;28;20229;-77
2023/06/06 01:33:54;;;;;;;9.68;8.15;;;;;;;;;;5078822;28;20043;-76
2023/06/06 01:36:37;;;;;;;9.30;7.50;;;;;;;;;;5081819;28;20020;-75
2023/06/06 01:39:07;;;;;;;11.10;7.78;;;;;;;;;;5080197;28;20420;-76
2023/06/06 01:41:34;;;;;;;7.97;7.15;;;;;;;;;;5075415;28;20016;-77
2023/06/06 01:44:00;;;;;;;10.13;7.18;;;;;;;;;;5077040;28;20024;-78
2023/06/06 01:46:26;;;;;;;11.45;7.35;;;;;;;;;;5083723;28;20423;-77
2023/06/06 01:48:51;;;;;;;7.60;6.80;;;;;;;;;;5084919;28;20024;-77
2023/06/06 01:51:17;;;;;;;8.70;7.18;;;;;;;;;;5085570;28;20461;-80
2023/06/06 01:53:42;;;;;;;10.20;8.48;;;;;;;;;;5085552;28;20062;-77
2023/06/06 01:56:12;;;;;;;9.57;7.25;;;;;;;;;;5084122;28;20048;-77
2023/06/06 01:58:38;;;;;;;8.57;6.93;;;;;;;;;;5085467;28;20324;-75
2023/06/06 02:01:03;;;;;;;13.05;7.68;;;;;;;;;;5079622;28;20031;-77
2023/06/06 02:03:29;;;;;;;8.20;7.32;;;;;;;;;;5081507;28;20024;-77
2023/06/06 02:05:55;;;;;;;9.80;7.80;;;;;;;;;;5085141;28;20028;-78
2023/06/06 02:08:21;;;;;;;7.93;7.07;;;;;;;;;;5084705;28;20450;-78
2023/06/06 02:10:46;;;;;;;9.93;7.78;;;;;;;;;;5082820;28;20038;-80
2023/06/06 02:13:11;;;;;;;10.80;8.32;;;;;;;;;;5083717;28;20020;-81
2023/06/06 02:15:37;;;;;;;10.85;7.55;;;;;;;;;;5083982;28;20115;-78
2023/06/06 02:18:03;;;;;;;9.60;8.30;;;;;;;;;;5085186;28;20035;-78
2023/06/06 02:20:28;;;;;;;12.95;7.57;;;;;;;;;;5084475;28;20032;-78
2023/06/06 02:22:54;;;;;;;9.85;8.00;;;;;;;;;;5083607;28;20426;-82
2023/06/06 02:25:19;;;;;;;10.32;7.63;;;;;;;;;;5082059;28;20024;-77
2023/06/06 02:27:47;;;;;;;9.18;7.43;;;;;;;;;;5083895;28;20383;-81
2023/06/06 02:30:12;;;;;;;8.88;8.00;;;;;;;;;;5074488;28;20723;-77
2023/06/06 02:32:39;;;;;;;9.10;8.25;;;;;;;;;;5084209;28;20023;-77
2023/06/06 02:35:04;;;;;;;8.70;7.72;;;;;;;;;;5082909;28;20028;-78
2023/06/06 02:37:32;;;;;;;9.65;7.70;;;;;;;;;;5084981;28;20039;-76
2023/06/06 02:39:58;;;;;;;9.13;8.18;;;;;;;;;;5084282;28;20147;-77
2023/06/06 02:42:23;;;;;;;10.20;8.85;;;;;;;;;;5084679;28;20169;-78
2023/06/06 02:44:49;;;;;;;9.98;9.00;;;;;;;;;;5083929;28;20035;-78
2023/06/06 02:47:15;;;;;;;10.93;8.85;;;;;;;;;;5084528;28;20505;-77
2023/06/06 02:49:40;;;;;;;11.52;8.88;;;;;;;;;;5083650;28;20043;-78
2023/06/06 02:52:06;;;;;;;10.02;9.00;;;;;;;;;;5084393;28;20073;-78
2023/06/06 02:54:32;;;;;;;15.05;9.57;;;;;;;;;;5083983;28;20016;-82
2023/06/06 02:56:57;;;;;;;10.50;8.88;;;;;;;;;;5082814;28;20428;-78
2023/06/06 02:59:22;;;;;;;10.27;9.27;;;;;;;;;;5076053;28;20436;-79
2023/06/06 03:01:49;;;;;;;10.70;9.57;;;;;;;;;;5079218;28;20042;-78
2023/06/06 03:04:14;;;;;;;11.35;8.48;;;;;;;;;;5083074;28;20059;-79
2023/06/06 03:06:40;;;;;;;9.25;8.43;;;;;;;;;;5085139;28;20419;-79
2023/06/06 03:09:06;;;;;;;11.05;8.70;;;;;;;;;;5083543;28;20813;-80
2023/06/06 03:11:31;;;;;;;14.88;8.75;;;;;;;;;;5082807;28;20035;-79
2023/06/06 03:13:57;;;;;;;17.73;8.52;;;;;;;;;;5082008;28;20016;-77
2023/06/06 03:16:26;;;;;;;13.95;7.57;;;;;;;;;;5082926;28;20347;-78
2023/06/06 03:18:52;;;;;;;8.25;7.40;;;;;;;;;;5083559;28;20071;-79
2023/06/06 03:21:18;;;;;;;8.38;7.53;;;;;;;;;;5071021;28;20031;-77
2023/06/06 03:23:43;;;;;;;12.00;8.50;;;;;;;;;;5077195;28;20024;-78
2023/06/06 03:26:09;;;;;;;9.57;8.13;;;;;;;;;;5083191;28;20115;-80
2023/06/06 03:28:34;;;;;;;12.10;8.27;;;;;;;;;;5083371;28;20035;-79
2023/06/06 03:31:01;;;;;;;13.80;9.07;;;;;;;;;;5083217;28;20187;-76
2023/06/06 03:33:26;;;;;;;10.13;7.85;;;;;;;;;;5083207;28;20016;-77
2023/06/06 03:35:51;;;;;;;8.70;7.85;;;;;;;;;;5083301;28;20171;-80
2023/06/06 03:38:17;;;;;;;10.15;9.20;;;;;;;;;;5082331;28;20107;-82
2023/06/06 03:40:42;;;;;;;11.52;9.25;;;;;;;;;;5081093;28;20077;-78
2023/06/06 03:43:08;;;;;;;10.43;9.50;;;;;;;;;;5077074;28;20028;-79
2023/06/06 03:45:33;;;;;;;11.00;9.85;;;;;;;;;;5078101;28;20044;-80
2023/06/06 03:47:58;;;;;;;12.63;9.93;;;;;;;;;;5082870;28;20035;-79
2023/06/06 03:50:24;;;;;;;13.35;9.32;;;;;;;;;;5083272;28;20043;-81
2023/06/06 03:52:49;;;;;;;11.05;9.57;;;;;;;;;;5081926;28;20039;-81
2023/06/06 03:55:15;;;;;;;12.20;10.90;;;;;;;;;;5083338;28;20088;-81
2023/06/06 03:57:40;;;;;;;10.52;9.43;;;;;;;;;;5074009;28;20529;-78
2023/06/06 04:00:13;;;;;;;12.35;9.60;;;;;;;;;;5072124;28;20069;-78
2023/06/06 04:02:46;;;;;;;10.18;9.27;;;;;;;;;;5074853;28;20099;-81
2023/06/06 04:05:12;;;;;;;9.73;8.75;;;;;;;;;;5071760;28;20048;-80
2023/06/06 04:07:37;;;;;;;9.45;8.52;;;;;;;;;;5073159;28;20374;-78
2023/06/06 04:10:03;;;;;;;11.50;9.13;;;;;;;;;;5071099;28;20050;-78
2023/06/06 04:12:28;;;;;;;10.13;9.23;;;;;;;;;;5082087;28;20032;-79
2023/06/06 04:14:54;;;;;;;10.05;9.07;;;;;;;;;;5105472;27;20373;-82
2023/06/06 04:17:20;;;;;;;10.82;9.70;;;;;;;;;;5084999;28;20024;-82
2023/06/06 04:19:47;;;;;;;9.95;8.70;;;;;;;;;;5086247;28;20422;-81
2023/06/06 04:22:13;;;;;;;9.77;8.35;;;;;;;;;;5085527;28;20016;-83
2023/06/06 04:24:38;;;;;;;14.23;8.95;;;;;;;;;;5085188;28;20020;-83
2023/06/06 04:27:04;;;;;;;11.70;8.30;;;;;;;;;;5085204;28;20028;-82
2023/06/06 04:29:33;;;;;;;9.73;8.82;;;;;;;;;;5081339;28;20442;-82
2023/06/06 04:32:03;;;;;;;10.45;9.35;;;;;;;;;;5078630;28;20039;-79
2023/06/06 04:34:31;;;;;;;10.20;9.18;;;;;;;;;;5068553;28;20028;-76
2023/06/06 04:37:06;;;;;;;19.80;17.83;;;;;;;;;;5072011;28;20020;-79
2023/06/06 04:39:32;;;;;;;19.75;11.30;;;;;;;;;;5070962;28;20024;-77
2023/06/06 04:42:01;;;;;;;11.82;8.63;;;;;;;;;;5070319;28;20091;-79
2023/06/06 04:44:26;;;;;;;10.65;9.55;;;;;;;;;;5072668;28;20020;-82
2023/06/06 04:46:52;;;;;;;10.77;9.40;;;;;;;;;;5070854;28;20031;-81
2023/06/06 04:49:19;;;;;;;11.82;10.60;;;;;;;;;;5071132;28;20036;-81
2023/06/06 04:51:44;;;;;;;15.10;9.65;;;;;;;;;;5071983;28;20027;-81
2023/06/06 04:54:10;;;;;;;14.90;9.27;;;;;;;;;;5071018;28;20031;-80
2023/06/06 04:56:38;;;;;;;10.20;8.73;;;;;;;;;;5075523;28;20135;-83
2023/06/06 04:59:06;;;;;;;10.38;8.30;;;;;;;;;;5082114;28;20119;-80
2023/06/06 05:01:36;;;;;;;12.38;10.10;;;;;;;;;;5082757;28;20027;-82
2023/06/06 05:04:02;;;;;;;10.60;9.23;;;;;;;;;;5084742;28;20454;-81
2023/06/06 05:06:28;;;;;;;13.30;9.93;;;;;;;;;;5074708;28;20028;-79
2023/06/06 05:08:54;;;;;;;12.23;9.05;;;;;;;;;;5078976;28;20032;-80
2023/06/06 05:11:19;;;;;;;8.23;7.43;;;;;;;;;;5082062;28;20024;-79
2023/06/06 05:13:45;;;;;;;8.80;7.63;;;;;;;;;;5082070;28;20031;-80
2023/06/06 05:16:10;;;;;;;9.90;7.00;;;;;;;;;;5082299;28;20016;-78
2023/06/06 05:18:36;;;;;;;8.02;6.82;;;;;;;;;;5080726;28;20040;-79
2023/06/06 05:21:03;;;;;;;7.30;6.00;;;;;;;;;;5084200;28;20117;-78
2023/06/06 05:23:29;;;;;;;9.85;6.82;;;;;;;;;;5079993;28;20118;-79
2023/06/06 05:25:56;;;;;;;9.02;6.30;;;;;;;;;;5072036;28;20012;-78
2023/06/06 05:28:23;;;;;;;6.75;5.97;;;;;;;;;;5072742;28;20040;-78
2023/06/06 05:30:48;;;;;;;6.63;5.40;;;;;;;;;;5071709;28;20408;-78
2023/06/06 05:33:13;;;;;;;7.35;5.65;;;;;;;;;;5073266;28;20108;-77
2023/06/06 05:35:39;;;;;;;8.05;5.72;;;;;;;;;;5074451;28;20443;-81
2023/06/06 05:38:04;;;;;;;12.35;6.20;;;;;;;;;;5074373;28;20032;-80
2023/06/06 05:40:29;;;;;;;6.90;5.65;;;;;;;;;;5077583;28;20168;-79
2023/06/06 05:42:55;;;;;;;6.82;5.47;;;;;;;;;;5084464;28;20039;-79
2023/06/06 05:45:20;;;;;;;6.03;5.43;;;;;;;;;;5086060;28;20020;-79
2023/06/06 05:47:45;;;;;;;10.15;5.35;;;;;;;;;;5083943;28;20446;-79
2023/06/06 05:50:11;;;;;;;6.85;5.07;;;;;;;;;;5079731;28;20020;-80
2023/06/06 05:52:36;;;;;;;9.70;5.13;;;;;;;;;;5076419;28;20385;-77
2023/06/06 05:55:05;;;;;;;8.15;5.05;;;;;;;;;;5080341;28;20024;-81
2023/06/06 05:57:30;;;;;;;8.37;4.90;;;;;;;;;;5084299;28;20447;-77
2023/06/06 06:00:00;;;;;;;8.40;5.47;;;;;;;;;;5083932;28;20020;-81
2023/06/06 06:02:26;;;;;;;6.88;6.18;;;;;;;;;;5079681;28;20027;-82
2023/06/06 06:04:52;;;;;;;7.95;4.90;;;;;;;;;;5083387;28;20023;-78
2023/06/06 06:07:18;;;;;;;7.85;5.40;;;;;;;;;;5084614;28;20350;-79
2023/06/06 06:09:43;;;;;;;9.48;4.55;;;;;;;;;;5084232;28;20028;-78
2023/06/06 06:12:09;;;;;;;5.55;4.22;;;;;;;;;;5083076;28;20040;-80
2023/06/06 06:14:34;;;;;;;7.18;5.13;;;;;;;;;;5084208;28;20108;-78
2023/06/06 06:17:00;;;;;;;6.20;4.20;;;;;;;;;;5083432;28;20603;-80
2023/06/06 06:19:25;;;;;;;5.07;4.40;;;;;;;;;;5083856;28;20032;-79
2023/06/06 06:21:50;;;;;;;7.00;4.30;;;;;;;;;;5082642;28;20408;-81
2023/06/06 06:24:16;;;;;;;4.78;4.07;;;;;;;;;;5082457;28;20039;-81
2023/06/06 06:26:41;;;;;;;5.05;4.40;;;;;;;;;;5084276;28;20036;-80
2023/06/06 06:29:07;;;;;;;6.85;4.35;;;;;;;;;;5085694;28;20028;-79
2023/06/06 06:31:32;;;;;;;6.82;3.92;;;;;;;;;;5083942;28;20066;-80
2023/06/06 06:33:57;;;;;;;15.15;4.68;;;;;;;;;;5085752;28;20020;-79
2023/06/06 06:36:24;;;;;;;8.48;4.35;;;;;;;;;;5085629;28;20023;-78
2023/06/06 06:38:49;;;;;;;4.93;4.05;;;;;;;;;;5085385;28;20023;-81
2023/06/06 06:41:15;;;;;;;4.82;3.50;;;;;;;;;;5084937;28;20031;-83
2023/06/06 06:43:40;;;;;;;6.57;4.07;;;;;;;;;;5084812;28;20495;-77
2023/06/06 06:46:05;;;;;;;8.60;4.05;;;;;;;;;;5084577;28;20028;-81
2023/06/06 06:48:31;;;;;;;7.95;3.50;;;;;;;;;;5083482;28;20147;-79
2023/06/06 06:50:56;;;;;;;11.18;3.83;;;;;;;;;;5084710;28;20031;-79
2023/06/06 06:53:25;;;;;;;4.72;3.40;;;;;;;;;;5085408;28;20107;-76
2023/06/06 06:55:52;;;;;;;8.00;3.92;;;;;;;;;;5081622;28;20032;-77
2023/06/06 06:58:25;;;;;;;5.40;3.60;;;;;;;;;;5081463;28;20347;-77
2023/06/06 07:00:51;;;;;;;3.47;3.17;;;;;;;;;;5083351;28;20024;-77
2023/06/06 07:03:16;;;;;;;7.15;3.78;;;;;;;;;;5084768;28;20338;-79
2023/06/06 07:05:42;;;;;;;5.57;3.80;;;;;;;;;;5084855;28;20055;-78
2023/06/06 07:08:08;;;;;;;5.82;3.42;;;;;;;;;;5081268;28;20024;-78
2023/06/06 07:10:34;;;;;;;7.63;3.85;;;;;;;;;;5084837;28;20028;-75
2023/06/06 07:12:59;;;;;;;4.38;3.30;;;;;;;;;;5084375;28;20024;-78
2023/06/06 07:15:25;;;;;;;7.00;3.45;;;;;;;;;;5082948;28;20032;-78
2023/06/06 07:17:50;;;;;;;5.63;3.75;;;;;;;;;;5084025;28;20115;-80
2023/06/06 07:20:19;;;;;;;4.80;3.90;;;;;;;;;;5084216;28;20122;-81
2023/06/06 07:22:45;;;;;;;7.43;4.05;;;;;;;;;;5082039;28;20054;-82
2023/06/06 07:25:10;;;;;;;6.18;3.88;;;;;;;;;;5083737;28;20056;-79
2023/06/06 07:27:37;;;;;;;7.50;4.03;;;;;;;;;;5083158;28;20046;-82
2023/06/06 07:30:03;;;;;;;7.07;4.28;;;;;;;;;;5083046;28;20028;-82
2023/06/06 07:32:29;;;;;;;7.70;4.60;;;;;;;;;;5081172;28;20020;-82
2023/06/06 07:34:55;;;;;;;6.18;4.30;;;;;;;;;;5084174;28;20042;-78
2023/06/06 07:37:20;;;;;;;6.03;4.43;;;;;;;;;;5083769;28;20327;-79
2023/06/06 07:39:46;;;;;;;8.45;5.10;;;;;;;;;;5082523;28;20035;-81
2023/06/06 07:42:12;;;;;;;6.45;4.53;;;;;;;;;;5084489;28;20034;-80
2023/06/06 07:44:37;;;;;;;6.28;4.60;;;;;;;;;;5082968;28;20039;-80
2023/06/06 07:47:02;;;;;;;7.63;4.88;;;;;;;;;;5084014;28;20412;-80
2023/06/06 07:49:28;;;;;;;11.00;4.88;;;;;;;;;;5084017;28;20113;-82
2023/06/06 07:51:53;;;;;;;7.10;4.78;;;;;;;;;;5082941;28;20024;-80
2023/06/06 07:54:19;;;;;;;7.18;4.72;;;;;;;;;;5082809;28;20492;-84
2023/06/06 07:56:44;;;;;;;6.05;4.60;;;;;;;;;;5084157;28;20674;-80
2023/06/06 07:59:10;;;;;;;15.15;5.30;;;;;;;;;;5081233;28;20016;-80
2023/06/06 08:01:36;;;;;;;8.68;4.85;;;;;;;;;;5071090;28;20036;-79
2023/06/06 08:04:01;;;;;;;9.77;5.50;;;;;;;;;;5072271;28;20059;-80
2023/06/06 08:06:27;;;;;;;6.88;4.93;;;;;;;;;;5069451;28;20032;-81
2023/06/06 08:08:53;;;;;;;9.35;5.25;;;;;;;;;;5069655;28;20043;-77
2023/06/06 08:11:19;;;;;;;7.90;4.88;;;;;;;;;;5079502;28;20020;-79
2023/06/06 08:13:45;;;;;;;6.47;4.55;;;;;;;;;;5068856;28;20037;-80
2023/06/06 08:16:10;;;;;;;8.07;4.68;;;;;;;;;;5076432;28;20029;-81
2023/06/06 08:18:37;;;;;;;5.43;4.85;;;;;;;;;;5067721;28;20038;-81
2023/06/06 08:21:03;;;;;;;8.60;4.65;;;;;;;;;;5070733;28;20076;-80
2023/06/06 08:23:28;;;;;;;8.18;6.07;;;;;;;;;;5068594;28;20409;-77
2023/06/06 08:25:57;;;;;;;8.60;5.10;;;;;;;;;;5070155;28;20051;-82
2023/06/06 08:28:23;;;;;;;11.02;6.00;;;;;;;;;;5065324;28;20020;-81
2023/06/06 08:30:49;;;;;;;11.18;5.25;;;;;;;;;;5070145;28;20081;-80
2023/06/06 08:33:15;;;;;;;7.90;5.07;;;;;;;;;;5070927;28;20082;-82
2023/06/06 08:35:40;;;;;;;7.78;5.47;;;;;;;;;;5071729;28;20036;-82
2023/06/06 08:38:05;;;;;;;8.98;5.00;;;;;;;;;;5073437;28;20020;-82
2023/06/06 08:40:31;;;;;;;8.93;5.22;;;;;;;;;;5072737;28;20032;-79
2023/06/06 08:42:57;;;;;;;5.50;4.68;;;;;;;;;;5071714;28;20035;-77
2023/06/06 08:45:23;;;;;;;7.28;5.20;;;;;;;;;;5078765;28;20024;-79
2023/06/06 08:47:48;;;;;;;7.07;4.72;;;;;;;;;;5080181;28;20466;-80
2023/06/06 08:50:15;;;;;;;9.35;4.53;;;;;;;;;;5073119;28;20193;-80
2023/06/06 08:52:41;;;;;;;8.43;4.90;;;;;;;;;;5074439;28;20020;-80
2023/06/06 08:55:07;;;;;;;7.30;4.60;;;;;;;;;;5070141;28;20034;-78
2023/06/06 08:57:34;;;;;;;5.35;4.43;;;;;;;;;;5071048;28;20395;-80
2023/06/06 09:00:08;;;;;;;5.32;4.22;;;;;;;;;;5071172;28;20435;-79
2023/06/06 09:02:34;;;;;;;8.70;5.13;;;;;;;;;;5071065;28;20161;-82
2023/06/06 09:04:59;;;;;;;4.50;3.70;;;;;;;;;;5070333;28;20098;-80
2023/06/06 09:07:25;;;;;;;6.05;4.32;;;;;;;;;;5070476;28;20027;-80
2023/06/06 09:09:51;;;;;;;5.20;4.05;;;;;;;;;;5070143;28;20016;-83
2023/06/06 09:12:16;;;;;;;5.93;4.40;;;;;;;;;;5069157;28;20465;-78
2023/06/06 09:14:42;;;;;;;9.77;4.95;;;;;;;;;;5069995;28;20027;-79
2023/06/06 09:17:14;;;;;;;5.18;4.15;;;;;;;;;;5071026;28;20035;-79
2023/06/06 09:19:40;;;;;;;7.47;4.85;;;;;;;;;;5071038;28;20035;-77
2023/06/06 09:22:07;;;;;;;5.32;4.35;;;;;;;;;;5070148;28;20043;-79
2023/06/06 09:24:32;;;;;;;6.95;4.45;;;;;;;;;;5071741;28;20020;-80
2023/06/06 09:26:58;;;;;;;5.72;4.28;;;;;;;;;;5071584;28;20028;-81
2023/06/06 09:29:26;;;;;;;7.75;3.70;;;;;;;;;;5071648;28;20534;-80
2023/06/06 09:31:52;;;;;;;7.93;4.70;;;;;;;;;;5070736;28;20048;-83
2023/06/06 09:34:23;;;;;;;5.05;3.85;;;;;;;;;;5069402;28;20335;-81
2023/06/06 09:36:48;;;;;;;7.90;3.85;;;;;;;;;;5069767;28;20028;-81
2023/06/06 09:39:15;;;;;;;5.68;4.00;;;;;;;;;;5070598;28;20024;-80
2023/06/06 09:41:47;;;;;;;5.43;4.43;;;;;;;;;;5054992;28;20363;-80
2023/06/06 09:44:20;;;;;;;8.18;4.30;;;;;;;;;;5072071;28;20020;-80
2023/06/06 09:46:45;;;;;;;6.93;4.10;;;;;;;;;;5072495;28;20031;-79
2023/06/06 09:49:12;;;;;;;5.28;4.07;;;;;;;;;;5072521;28;20040;-82
2023/06/06 09:51:44;;;;;;;5.72;4.10;;;;;;;;;;5070112;28;20464;-83
2023/06/06 09:54:10;;;;;;;7.63;4.50;;;;;;;;;;5070661;28;20023;-83
2023/06/06 09:56:39;;;;;;;7.13;4.50;;;;;;;;;;5071223;28;20105;-79
2023/06/06 09:59:06;;;;;;;6.43;4.40;;;;;;;;;;5069303;28;20040;-77
2023/06/06 10:01:32;;;;;;;7.07;4.68;;;;;;;;;;5068707;28;20027;-76
2023/06/06 10:03:58;;;;;;;5.80;4.60;;;;;;;;;;5071801;28;20484;-82
2023/06/06 10:06:24;;;;;;;4.72;4.20;;;;;;;;;;5069684;28;20028;-79
2023/06/06 10:08:53;;;;;;;5.30;4.25;;;;;;;;;;5073854;28;20039;-80
2023/06/06 10:11:20;;;;;;;4.80;4.32;;;;;;;;;;5072791;28;20032;-79
2023/06/06 10:13:46;;;;;;;6.63;4.68;;;;;;;;;;5074719;28;20027;-79
2023/06/06 10:16:12;;;;;;;5.90;4.35;;;;;;;;;;5073867;28;20043;-79
2023/06/06 10:18:37;;;;;;;5.45;4.18;;;;;;;;;;5073453;28;20058;-79
2023/06/06 10:21:03;;;;;;;4.38;3.95;;;;;;;;;;5073053;28;20028;-79
2023/06/06 10:23:30;;;;;;;5.90;4.07;;;;;;;;;;5074707;28;20077;-81
2023/06/06 10:25:56;;;;;;;5.78;4.40;;;;;;;;;;5073231;28;20835;-78
2023/06/06 10:28:25;;;;;;;6.70;4.78;;;;;;;;;;5072624;28;20063;-79
2023/06/06 10:30:51;;;;;;;7.38;4.20;;;;;;;;;;5072007;28;20040;-78
2023/06/06 10:33:38;;;;;;;6.95;4.47;;;;;;;;;;5071836;28;20447;-78
2023/06/06 10:36:04;;;;;;;6.25;4.15;;;;;;;;;;5074328;28;20099;-81
2023/06/06 10:38:30;;;;;;;9.77;4.13;;;;;;;;;;5071948;28;20123;-78
2023/06/06 10:40:56;;;;;;;5.28;3.90;;;;;;;;;;5072253;28;20028;-80
2023/06/06 10:43:34;;;;;;;7.45;4.32;;;;;;;;;;5071187;28;20089;-80
2023/06/06 10:46:00;;;;;;;5.28;3.60;;;;;;;;;;5072122;28;20032;-80
2023/06/06 10:48:38;;;;;;;5.78;4.20;;;;;;;;;;5071672;28;20448;-77
2023/06/06 10:51:03;;;;;;;5.43;4.00;;;;;;;;;;5079625;28;20044;-77
2023/06/06 10:53:29;;;;;;;4.75;3.75;;;;;;;;;;5071084;28;20450;-78
2023/06/06 10:55:54;;;;;;;5.35;4.28;;;;;;;;;;5071969;28;20153;-77
2023/06/06 10:58:27;;;;;;;7.28;4.55;;;;;;;;;;5072607;28;20111;-77
2023/06/06 11:01:00;;;;;;;7.25;4.25;;;;;;;;;;5069817;28;20111;-77
2023/06/06 11:03:35;;;;;;;6.03;3.75;;;;;;;;;;5073734;28;20043;-79
2023/06/06 11:06:00;;;;;;;8.90;4.78;;;;;;;;;;5074251;28;20498;-80
2023/06/06 11:08:38;;;;;;;5.30;4.07;;;;;;;;;;5073064;28;20051;-80
2023/06/06 11:11:22;;;;;;;4.38;3.88;;;;;;;;;;5072890;28;20036;-79
2023/06/06 11:13:54;;;;;;;6.18;3.97;;;;;;;;;;5077180;28;20033;-76
2023/06/06 11:16:38;;;;;;;4.97;3.70;;;;;;;;;;5083761;28;20427;-76
2023/06/06 11:19:06;;;;;;;4.22;3.83;;;;;;;;;;5083015;28;20035;-78
2023/06/06 11:21:34;;;;;;;5.03;4.23;;;;;;;;;;5079588;28;20038;-79
2023/06/06 11:24:00;;;;;;;5.25;3.78;;;;;;;;;;5082453;28;20354;-80
2023/06/06 11:26:27;;;;;;;5.72;3.70;;;;;;;;;;5083067;28;20051;-79
2023/06/06 11:28:53;;;;;;;5.80;4.10;;;;;;;;;;5083305;28;20032;-77
2023/06/06 11:31:20;;;;;;;5.47;4.50;;;;;;;;;;5082909;28;20093;-78
2023/06/06 11:33:45;;;;;;;5.45;4.60;;;;;;;;;;5083260;28;20027;-80
2023/06/06 11:36:11;;;;;;;5.00;4.60;;;;;;;;;;5081938;28;20032;-78
2023/06/06 11:38:40;;;;;;;5.97;5.25;;;;;;;;;;5083846;28;20039;-78
2023/06/06 11:41:05;;;;;;;6.15;5.22;;;;;;;;;;5082957;28;20016;-79
2023/06/06 11:43:31;;;;;;;5.70;5.20;;;;;;;;;;5082673;28;20028;-79
2023/06/06 11:46:06;;;;;;;6.68;5.40;;;;;;;;;;5083253;28;20039;-76
2023/06/06 11:48:31;;;;;;;7.20;5.57;;;;;;;;;;5081892;28;20028;-78
2023/06/06 11:50:57;;;;;;;6.00;5.03;;;;;;;;;;5082588;28;20089;-79
2023/06/06 11:53:29;;;;;;;8.00;5.32;;;;;;;;;;5082181;28;20016;-81
2023/06/06 11:55:54;;;;;;;7.30;5.53;;;;;;;;;;5081536;28;20027;-79
2023/06/06 11:58:20;;;;;;;5.65;5.10;;;;;;;;;;5083588;28;20040;-77
2023/06/06 12:00:46;;;;;;;5.82;5.22;;;;;;;;;;5081563;28;20024;-78
2023/06/06 12:03:14;;;;;;;8.60;5.25;;;;;;;;;;5082351;28;20032;-79
2023/06/06 12:05:41;;;;;;;5.72;4.88;;;;;;;;;;5083248;28;20032;-82
2023/06/06 12:08:07;;;;;;;5.97;5.20;;;;;;;;;;5082616;28;20352;-78
2023/06/06 12:10:32;;;;;;;11.27;4.90;;;;;;;;;;5078217;28;20036;-78
2023/06/06 12:12:58;;;;;;;6.70;4.85;;;;;;;;;;5081167;28;20043;-81
2023/06/06 12:15:43;;;;;;;7.85;5.18;;;;;;;;;;5083372;28;20022;-79
2023/06/06 12:18:09;;;;;;;10.68;5.50;;;;;;;;;;5081549;28;20040;-78
2023/06/06 12:20:34;;;;;;;9.15;5.13;;;;;;;;;;5082578;28;20043;-79
2023/06/06 12:22:59;;;;;;;8.88;5.10;;;;;;;;;;5082911;28;20031;-79
2023/06/06 12:25:26;;;;;;;7.40;5.13;;;;;;;;;;5081238;28;20114;-80
2023/06/06 12:27:53;;;;;;;6.70;4.93;;;;;;;;;;5080462;28;20040;-82
2023/06/06 12:30:28;;;;;;;7.15;5.15;;;;;;;;;;5081576;28;20051;-79
2023/06/06 12:32:53;;;;;;;5.85;4.82;;;;;;;;;;5071216;28;20022;-77
2023/06/06 12:35:21;;;;;;;6.40;5.18;;;;;;;;;;5068114;28;20028;-77
2023/06/06 12:37:46;;;;;;;6.68;5.07;;;;;;;;;;5074728;28;20019;-76
2023/06/06 12:40:12;;;;;;;5.85;4.88;;;;;;;;;;5068572;28;20031;-77
2023/06/06 12:42:38;;;;;;;6.32;5.60;;;;;;;;;;5067981;28;20028;-77
2023/06/06 12:45:04;;;;;;;9.27;5.45;;;;;;;;;;5070826;28;20120;-77
2023/06/06 12:47:30;;;;;;;6.35;5.30;;;;;;;;;;5080820;28;20056;-77
2023/06/06 12:49:55;;;;;;;7.15;5.68;;;;;;;;;;5082144;28;20067;-78
2023/06/06 12:52:20;;;;;;;6.13;4.75;;;;;;;;;;5081723;28;20031;-78
2023/06/06 12:54:46;;;;;;;7.25;5.43;;;;;;;;;;5077474;28;20024;-78
2023/06/06 12:57:11;;;;;;;7.57;5.45;;;;;;;;;;5076501;28;20040;-77
2023/06/06 12:59:41;;;;;;;6.60;5.60;;;;;;;;;;5081324;28;20040;-79
2023/06/06 13:02:09;;;;;;;8.45;5.78;;;;;;;;;;5080219;28;20419;-80
2023/06/06 13:04:35;;;;;;;5.70;5.10;;;;;;;;;;5081748;28;20558;-77
2023/06/06 13:07:01;;;;;;;6.32;5.15;;;;;;;;;;5080378;28;20137;-80
2023/06/06 13:09:27;;;;;;;6.28;5.65;;;;;;;;;;5079955;28;20070;-78
2023/06/06 13:11:53;;;;;;;11.25;5.63;;;;;;;;;;5079694;28;20035;-78
2023/06/06 13:14:18;;;;;;;6.20;5.60;;;;;;;;;;5080350;28;20032;-78
2023/06/06 13:16:43;;;;;;;9.30;5.72;;;;;;;;;;5082383;28;20064;-81
2023/06/06 13:19:11;;;;;;;8.43;5.38;;;;;;;;;;5077319;28;20036;-78
2023/06/06 13:21:36;;;;;;;8.40;5.28;;;;;;;;;;5068803;28;20117;-79
2023/06/06 13:24:01;;;;;;;9.65;5.20;;;;;;;;;;5077585;28;20051;-80
2023/06/06 13:26:27;;;;;;;7.20;5.43;;;;;;;;;;5081667;28;20024;-78
2023/06/06 13:28:52;;;;;;;6.82;5.95;;;;;;;;;;4997145;27;20045;-77
2023/06/06 13:31:18;;;;;;;9.23;5.50;;;;;;;;;;4986442;28;20025;-79
2023/06/06 13:33:43;;;;;;;6.90;5.50;;;;;;;;;;4998970;28;20488;-77
2023/06/06 13:36:09;;;;;;;8.10;5.55;;;;;;;;;;5002424;28;20032;-77
2023/06/06 13:38:34;;;;;;;6.38;5.30;;;;;;;;;;4990304;28;20057;-77
2023/06/06 13:40:59;;;;;;;9.50;5.43;;;;;;;;;;4999680;28;20032;-78
2023/06/06 13:43:25;;;;;;;6.65;5.18;;;;;;;;;;5006131;28;20152;-77
2023/06/06 13:45:50;;;;;;;7.57;5.32;;;;;;;;;;5006725;28;20456;-77
2023/06/06 13:48:16;;;;;;;8.15;5.20;;;;;;;;;;4998271;28;20085;-79
2023/06/06 13:50:41;;;;;;;8.35;5.65;;;;;;;;;;4999830;28;20449;-81
2023/06/06 13:53:06;;;;;;;7.75;5.40;;;;;;;;;;5005692;28;20097;-80
2023/06/06 13:55:32;;;;;;;6.50;5.20;;;;;;;;;;5005777;28;20033;-78
2023/06/06 13:58:02;;;;;;;8.07;5.07;;;;;;;;;;4994649;28;20054;-81
2023/06/06 14:00:28;;;;;;;6.68;5.18;;;;;;;;;;4994830;28;20030;-79
2023/06/06 14:02:54;;;;;;;6.88;5.88;;;;;;;;;;4991889;28;20029;-78
2023/06/06 14:05:19;;;;;;;7.25;4.93;;;;;;;;;;4991181;28;20064;-75
2023/06/06 14:07:45;;;;;;;7.28;5.35;;;;;;;;;;4991097;28;20045;-78
2023/06/06 14:10:10;;;;;;;12.35;5.50;;;;;;;;;;4994586;28;20031;-77
2023/06/06 14:12:36;;;;;;;6.65;5.43;;;;;;;;;;5005949;28;20456;-77
2023/06/06 14:15:01;;;;;;;7.72;5.65;;;;;;;;;;4998708;28;20021;-77
2023/06/06 14:17:26;;;;;;;7.32;5.38;;;;;;;;;;4996895;28;20041;-81
2023/06/06 14:19:53;;;;;;;11.82;6.22;;;;;;;;;;5001003;28;20487;-78
2023/06/06 14:22:29;;;;;;;8.82;6.05;;;;;;;;;;5004974;28;20030;-78
2023/06/06 14:24:55;;;;;;;6.80;6.03;;;;;;;;;;5003994;28;20022;-79
2023/06/06 14:27:21;;;;;;;6.43;5.80;;;;;;;;;;5021248;28;20516;-77
2023/06/06 14:29:47;;;;;;;7.65;5.60;;;;;;;;;;5005485;28;20029;-75
2023/06/06 14:32:13;;;;;;;7.63;5.50;;;;;;;;;;5004611;28;20025;-77
2023/06/06 14:34:39;;;;;;;6.43;5.80;;;;;;;;;;5003305;28;20030;-77
2023/06/06 14:37:06;;;;;;;10.02;6.10;;;;;;;;;;4995641;28;20029;-76